Time;durP1;ratioP1;P1;durP2;ratioP2;P2;SDS_P1;SDS_P2;PMS_P1;PMS_P2;Temp;Humidity;BMP_temperature;BMP_pressure;BME280_temperature;BME280_humidity;BME280_pressure;Samples;Min_cycle;Max_cycle;Signal;HPM_P1;HPM_P2
2022/11/26 00:01:39;;;;;;;1999.90;999.90;;;7.00;99.90;;;;;;5048994;28;20483;-69
2022/11/26 00:04:06;;;;;;;1999.90;999.90;;;7.00;99.90;;;;;;5049008;28;20443;-68
2022/11/26 00:06:37;;;;;;;1999.90;999.90;;;7.00;99.90;;;;;;5049047;28;20448;-69
2022/11/26 00:09:06;;;;;;;1999.90;999.90;;;7.00;99.90;;;;;;5048817;28;20448;-69
2022/11/26 00:11:33;;;;;;;1999.90;999.90;;;7.00;99.90;;;;;;5048718;28;20509;-69
2022/11/26 00:14:00;;;;;;;1999.90;999.90;;;7.00;99.90;;;;;;5049070;28;20444;-69
2022/11/26 00:16:27;;;;;;;1999.90;999.90;;;7.00;99.90;;;;;;5049027;28;20443;-69
2022/11/26 00:18:54;;;;;;;1999.90;999.90;;;6.90;99.90;;;;;;5048115;28;20452;-69
2022/11/26 00:21:23;;;;;;;1999.90;999.90;;;6.80;99.90;;;;;;5052271;28;20466;-69
2022/11/26 00:23:51;;;;;;;1999.90;999.90;;;6.80;99.90;;;;;;5051796;28;21089;-69
2022/11/26 00:26:21;;;;;;;1999.90;999.90;;;6.80;99.90;;;;;;5050636;28;20542;-69
2022/11/26 00:28:51;;;;;;;1999.90;999.90;;;6.70;99.90;;;;;;5048599;28;20455;-69
2022/11/26 00:31:18;;;;;;;1999.90;999.90;;;6.80;99.90;;;;;;5048575;28;20468;-69
2022/11/26 00:33:45;;;;;;;1999.90;999.90;;;6.80;99.90;;;;;;5048498;28;20466;-69
2022/11/26 00:36:20;;;;;;;1999.90;999.90;;;6.80;99.90;;;;;;5048303;28;20458;-69
2022/11/26 00:38:53;;;;;;;1999.90;999.90;;;6.80;99.90;;;;;;5048180;28;21016;-69
2022/11/26 00:41:23;;;;;;;1999.90;999.90;;;6.80;99.90;;;;;;5048357;28;20834;-69
2022/11/26 00:43:50;;;;;;;1999.90;999.90;;;6.80;99.90;;;;;;5048493;28;20454;-69
2022/11/26 00:46:19;;;;;;;1999.90;999.90;;;6.90;99.90;;;;;;5044756;28;20458;-69
2022/11/26 00:48:46;;;;;;;1999.90;999.90;;;6.90;99.90;;;;;;5047823;28;20450;-69
2022/11/26 00:51:16;;;;;;;1999.90;999.90;;;7.00;99.90;;;;;;5047894;28;20478;-69
2022/11/26 00:53:44;;;;;;;1999.90;999.90;;;7.00;99.90;;;;;;5048415;28;20948;-69
2022/11/26 00:56:17;;;;;;;1999.90;999.90;;;7.00;99.90;;;;;;5048661;28;20475;-68
2022/11/26 00:58:44;;;;;;;1999.90;999.90;;;6.90;99.90;;;;;;5047928;28;20444;-68
2022/11/26 01:01:13;;;;;;;1999.90;999.90;;;6.90;99.90;;;;;;5048510;28;20463;-68
2022/11/26 01:03:41;;;;;;;1999.90;999.90;;;7.00;99.90;;;;;;5047932;28;20480;-68
2022/11/26 01:06:15;;;;;;;1999.90;999.90;;;7.00;99.90;;;;;;5048605;28;20546;-68
2022/11/26 01:08:42;;;;;;;1999.90;999.90;;;7.00;99.90;;;;;;5047739;28;20494;-68
2022/11/26 01:11:12;;;;;;;1999.90;999.90;;;7.00;99.90;;;;;;5048618;28;20468;-68
2022/11/26 01:13:41;;;;;;;1999.90;999.90;;;7.00;99.90;;;;;;5048510;28;20460;-68
2022/11/26 01:16:18;;;;;;;1999.90;999.90;;;7.00;99.90;;;;;;5048155;28;20455;-68
2022/11/26 01:18:45;;;;;;;1999.90;999.90;;;7.00;99.90;;;;;;5047772;28;20964;-68
2022/11/26 01:21:12;;;;;;;1999.90;999.90;;;7.10;99.90;;;;;;5048183;28;20460;-68
2022/11/26 01:23:39;;;;;;;1999.90;999.90;;;7.10;99.90;;;;;;5048244;28;20865;-68
2022/11/26 01:26:06;;;;;;;1999.90;999.90;;;7.10;99.90;;;;;;5048053;28;20483;-68
2022/11/26 01:28:33;;;;;;;1999.90;999.90;;;7.10;99.90;;;;;;5047878;28;20451;-68
2022/11/26 01:31:01;;;;;;;1999.90;999.90;;;7.00;99.90;;;;;;5047731;28;20468;-68
2022/11/26 01:33:28;;;;;;;1999.90;999.90;;;7.00;99.90;;;;;;5047972;28;20954;-68
2022/11/26 01:35:54;;;;;;;1999.90;999.90;;;7.10;99.90;;;;;;5046020;28;21146;-68
2022/11/26 01:38:21;;;;;;;1999.90;999.90;;;7.10;99.90;;;;;;5048157;28;20448;-68
2022/11/26 01:41:07;;;;;;;1999.90;999.90;;;7.10;99.90;;;;;;5034798;28;20468;-68
2022/11/26 01:43:40;;;;;;;1999.90;999.90;;;7.10;99.90;;;;;;5032479;28;20491;-68
2022/11/26 01:46:14;;;;;;;1999.90;999.90;;;7.20;99.90;;;;;;5032513;28;20449;-68
2022/11/26 01:48:41;;;;;;;1999.90;999.90;;;7.20;99.90;;;;;;5032079;28;20498;-68
2022/11/26 01:51:10;;;;;;;1999.90;999.90;;;7.20;99.90;;;;;;5032653;28;20473;-68
2022/11/26 01:53:43;;;;;;;1999.90;999.90;;;7.20;99.90;;;;;;5032425;28;20433;-68
2022/11/26 01:56:31;;;;;;;1999.90;999.90;;;7.20;99.90;;;;;;5032788;28;20448;-68
2022/11/26 01:59:06;;;;;;;1999.90;999.90;;;7.10;99.90;;;;;;5032121;28;20494;-68
2022/11/26 02:01:35;;;;;;;1999.90;999.90;;;7.10;99.90;;;;;;5032663;28;20451;-68
2022/11/26 02:04:11;;;;;;;1999.90;999.90;;;7.10;99.90;;;;;;5032170;28;20491;-68
2022/11/26 02:06:40;;;;;;;1999.90;999.90;;;7.10;99.90;;;;;;5032804;28;20449;-68
2022/11/26 02:09:08;;;;;;;1999.90;999.90;;;7.10;99.90;;;;;;5031735;28;20445;-68
2022/11/26 02:11:36;;;;;;;1999.90;999.90;;;7.10;99.90;;;;;;5032532;28;20456;-68
2022/11/26 02:14:05;;;;;;;1999.90;999.90;;;7.10;99.90;;;;;;5032398;28;20448;-68
2022/11/26 02:17:08;;;;;;;1999.90;999.90;;;7.10;99.90;;;;;;5031979;28;20451;-68
2022/11/26 02:19:55;;;;;;;1999.90;999.90;;;7.10;99.90;;;;;;5031651;28;20978;-68
2022/11/26 02:22:47;;;;;;;1999.90;999.90;;;7.10;99.90;;;;;;5032172;28;20480;-68
2022/11/26 02:25:19;;;;;;;1999.90;999.90;;;7.10;99.90;;;;;;5001318;28;20456;-68
2022/11/26 02:28:12;;;;;;;1999.90;999.90;;;7.00;99.90;;;;;;5032246;28;20464;-68
2022/11/26 02:30:46;;;;;;;1999.90;999.90;;;7.00;99.90;;;;;;5031934;28;20475;-69
2022/11/26 02:33:20;;;;;;;1999.90;999.90;;;7.00;99.90;;;;;;5033107;28;20444;-69
2022/11/26 02:35:49;;;;;;;1999.90;999.90;;;6.90;99.90;;;;;;5030830;28;20792;-70
2022/11/26 02:38:21;;;;;;;1999.90;999.90;;;6.80;99.90;;;;;;5031503;28;20198;-69
2022/11/26 02:40:50;;;;;;;1999.90;999.90;;;6.80;99.90;;;;;;5032086;28;20469;-70
2022/11/26 02:43:19;;;;;;;1999.90;999.90;;;6.80;99.90;;;;;;5031415;28;20516;-69
2022/11/26 02:45:50;;;;;;;1999.90;999.90;;;6.90;99.90;;;;;;5031724;28;21031;-69
2022/11/26 02:48:23;;;;;;;1999.90;999.90;;;6.90;99.90;;;;;;5031395;28;20968;-69
2022/11/26 02:50:53;;;;;;;1999.90;999.90;;;6.90;99.90;;;;;;5031611;28;20465;-69
2022/11/26 02:53:22;;;;;;;1999.90;999.90;;;7.00;99.90;;;;;;5031569;28;20437;-69
2022/11/26 02:55:52;;;;;;;1999.90;999.90;;;7.00;99.90;;;;;;5031474;28;20456;-69
2022/11/26 02:58:20;;;;;;;1999.90;999.90;;;6.90;99.90;;;;;;5030742;28;20445;-69
2022/11/26 03:00:49;;;;;;;1999.90;999.90;;;7.00;99.90;;;;;;5031351;28;20473;-69
2022/11/26 03:03:22;;;;;;;1999.90;999.90;;;7.00;99.90;;;;;;5031238;28;20481;-69
2022/11/26 03:05:52;;;;;;;1999.90;999.90;;;7.00;99.90;;;;;;5031268;28;20456;-69
2022/11/26 03:08:20;;;;;;;1999.90;999.90;;;7.00;99.90;;;;;;5030732;28;20448;-69
2022/11/26 03:10:47;;;;;;;1999.90;999.90;;;7.00;99.90;;;;;;5030993;28;20491;-69
2022/11/26 03:13:15;;;;;;;1999.90;999.90;;;7.00;99.90;;;;;;5031361;28;20814;-69
2022/11/26 03:15:45;;;;;;;1999.90;999.90;;;7.00;99.90;;;;;;5031027;28;20453;-69
2022/11/26 03:18:13;;;;;;;1999.90;999.90;;;7.00;99.90;;;;;;5030875;28;20445;-69
2022/11/26 03:20:39;;;;;;;1999.90;999.90;;;7.00;99.90;;;;;;5030701;28;20986;-69
2022/11/26 03:23:06;;;;;;;1999.90;999.90;;;7.00;99.90;;;;;;5030931;28;21171;-69
2022/11/26 03:25:34;;;;;;;1999.90;999.90;;;7.10;99.90;;;;;;5031089;28;20457;-69
2022/11/26 03:28:00;;;;;;;1999.90;999.90;;;7.10;99.90;;;;;;5030963;28;20448;-70
2022/11/26 03:30:27;;;;;;;1999.90;999.90;;;7.10;99.90;;;;;;5030484;28;20460;-69
2022/11/26 03:32:54;;;;;;;1999.90;999.90;;;7.00;99.90;;;;;;5030885;28;20445;-69
2022/11/26 03:35:22;;;;;;;1999.90;999.90;;;7.00;99.90;;;;;;5030659;28;20464;-69
2022/11/26 03:37:49;;;;;;;1999.90;999.90;;;6.90;99.90;;;;;;5030752;28;20449;-69
2022/11/26 03:40:16;;;;;;;1999.90;999.90;;;6.90;99.90;;;;;;5030359;28;20505;-69
2022/11/26 03:42:43;;;;;;;1999.90;999.90;;;6.80;99.90;;;;;;5030627;28;20484;-69
2022/11/26 03:45:11;;;;;;;1999.90;999.90;;;6.80;99.90;;;;;;5030888;28;20453;-69
2022/11/26 03:47:38;;;;;;;1999.90;999.90;;;6.80;99.90;;;;;;5030712;28;20476;-69
2022/11/26 03:50:07;;;;;;;1999.90;999.90;;;6.70;99.90;;;;;;5030419;28;21000;-69
2022/11/26 03:52:35;;;;;;;1999.90;999.90;;;6.60;99.90;;;;;;5030564;28;20449;-69
2022/11/26 03:55:02;;;;;;;1999.90;999.90;;;6.50;99.90;;;;;;5030994;28;21018;-69
2022/11/26 03:57:29;;;;;;;1999.90;999.90;;;6.50;99.90;;;;;;5030597;28;20448;-69
2022/11/26 03:59:55;;;;;;;1999.90;999.90;;;6.50;99.90;;;;;;5030314;28;20472;-69
2022/11/26 04:02:22;;;;;;;1999.90;999.90;;;6.40;99.90;;;;;;5029512;28;20449;-69
2022/11/26 04:04:49;;;;;;;1999.90;999.90;;;6.20;99.90;;;;;;5030326;28;20455;-69
2022/11/26 04:07:16;;;;;;;1999.90;999.90;;;6.10;99.90;;;;;;5030364;28;20449;-69
2022/11/26 04:09:44;;;;;;;1999.90;999.90;;;6.10;99.90;;;;;;5029811;28;20477;-69
2022/11/26 04:12:11;;;;;;;1999.90;999.90;;;6.00;99.90;;;;;;5029876;28;20453;-69
2022/11/26 04:14:37;;;;;;;1999.90;999.90;;;6.00;99.90;;;;;;5029667;28;20448;-69
2022/11/26 04:17:04;;;;;;;1999.90;999.90;;;6.00;99.90;;;;;;5030117;28;20451;-69
2022/11/26 04:19:31;;;;;;;1999.90;999.90;;;6.00;99.90;;;;;;5029318;28;20475;-69
2022/11/26 04:21:58;;;;;;;1999.90;999.90;;;5.90;99.90;;;;;;5030280;28;20449;-69
2022/11/26 04:24:24;;;;;;;1999.90;999.90;;;5.90;99.90;;;;;;5030032;28;20488;-69
2022/11/26 04:26:52;;;;;;;1999.90;999.90;;;5.90;99.90;;;;;;5030067;28;20448;-69
2022/11/26 04:29:19;;;;;;;1999.90;999.90;;;5.70;99.90;;;;;;5029347;28;21006;-69
2022/11/26 04:31:46;;;;;;;1999.90;999.90;;;5.70;99.90;;;;;;5029927;28;20939;-69
2022/11/26 04:34:13;;;;;;;1999.90;999.90;;;5.70;99.90;;;;;;5029610;28;20451;-69
2022/11/26 04:36:39;;;;;;;1999.90;999.90;;;5.60;99.90;;;;;;5029810;28;20460;-69
2022/11/26 04:39:06;;;;;;;1999.90;999.90;;;5.70;99.90;;;;;;5029624;28;20449;-69
2022/11/26 04:41:33;;;;;;;1999.90;999.90;;;5.70;99.90;;;;;;5029756;28;20931;-69
2022/11/26 04:44:01;;;;;;;1999.90;999.90;;;5.70;99.90;;;;;;5029775;28;20867;-70
2022/11/26 04:46:28;;;;;;;1999.90;999.90;;;5.70;99.90;;;;;;5029440;28;20444;-69
2022/11/26 04:48:55;;;;;;;1999.90;999.90;;;5.70;99.90;;;;;;5029307;28;20445;-69
2022/11/26 04:51:21;;;;;;;1999.90;999.90;;;5.70;99.90;;;;;;5029726;28;20969;-69
2022/11/26 04:53:48;;;;;;;1999.90;999.90;;;5.70;99.90;;;;;;5029772;28;20449;-69
2022/11/26 04:56:15;;;;;;;1999.90;999.90;;;5.70;99.90;;;;;;5029513;28;20457;-69
2022/11/26 04:58:42;;;;;;;1999.90;999.90;;;5.70;99.90;;;;;;5029397;28;20624;-69
2022/11/26 05:01:10;;;;;;;1999.90;999.90;;;5.70;99.90;;;;;;5029222;28;20480;-69
2022/11/26 05:03:37;;;;;;;1999.90;999.90;;;5.80;99.90;;;;;;5030288;28;20484;-69
2022/11/26 05:06:04;;;;;;;1999.90;999.90;;;5.80;99.90;;;;;;5042878;28;20443;-69
2022/11/26 05:08:30;;;;;;;1999.90;999.90;;;5.80;99.90;;;;;;5041379;28;20459;-69
2022/11/26 05:10:59;;;;;;;1999.90;999.90;;;5.70;99.90;;;;;;5049060;28;20978;-69
2022/11/26 05:13:26;;;;;;;1999.90;999.90;;;5.70;99.90;;;;;;5050608;28;20440;-69
2022/11/26 05:15:53;;;;;;;1999.90;999.90;;;5.60;99.90;;;;;;5053456;28;20447;-69
2022/11/26 05:18:21;;;;;;;1999.90;999.90;;;5.60;99.90;;;;;;5053042;28;20462;-69
2022/11/26 05:20:48;;;;;;;1999.90;999.90;;;5.50;99.90;;;;;;5053350;28;20471;-69
2022/11/26 05:23:15;;;;;;;1999.90;999.90;;;5.50;99.90;;;;;;5052943;28;20485;-69
2022/11/26 05:25:42;;;;;;;1999.90;999.90;;;5.40;99.90;;;;;;5053313;28;20443;-69
2022/11/26 05:28:08;;;;;;;1999.90;999.90;;;5.30;99.90;;;;;;5052728;28;20454;-69
2022/11/26 05:30:36;;;;;;;1999.90;999.90;;;5.30;99.90;;;;;;5053050;28;20463;-69
2022/11/26 05:33:03;;;;;;;1999.90;999.90;;;5.10;99.90;;;;;;5052916;28;20448;-69
2022/11/26 05:35:31;;;;;;;1999.90;999.90;;;5.10;99.90;;;;;;5052741;28;20481;-69
2022/11/26 05:37:57;;;;;;;1999.90;999.90;;;5.00;99.90;;;;;;5052945;28;20444;-69
2022/11/26 05:40:24;;;;;;;1999.90;999.90;;;5.00;99.90;;;;;;5052373;28;20479;-69
2022/11/26 05:42:51;;;;;;;1999.90;999.90;;;5.00;99.90;;;;;;5052772;28;20957;-69
2022/11/26 05:45:18;;;;;;;1999.90;999.90;;;5.00;99.90;;;;;;5052942;28;20802;-69
2022/11/26 05:47:45;;;;;;;1999.90;999.90;;;4.90;99.90;;;;;;5052909;28;20459;-69
2022/11/26 05:50:13;;;;;;;1999.90;999.90;;;4.80;99.90;;;;;;5052436;28;20459;-69
2022/11/26 05:52:41;;;;;;;1999.90;999.90;;;4.70;99.90;;;;;;5052708;28;20462;-69
2022/11/26 05:55:10;;;;;;;1999.90;999.90;;;4.50;99.90;;;;;;5052578;28;20440;-70
2022/11/26 05:57:37;;;;;;;1999.90;999.90;;;4.40;99.90;;;;;;5052803;28;20448;-69
2022/11/26 06:00:06;;;;;;;1999.90;999.90;;;4.40;99.90;;;;;;5052244;28;20841;-69
2022/11/26 06:02:32;;;;;;;1999.90;999.90;;;4.60;99.90;;;;;;5052811;28;20444;-69
2022/11/26 06:04:59;;;;;;;1999.90;999.90;;;4.50;99.90;;;;;;5052212;28;20549;-69
2022/11/26 06:07:26;;;;;;;1999.90;999.90;;;4.30;99.90;;;;;;5052353;28;20451;-69
2022/11/26 06:09:54;;;;;;;1999.90;999.90;;;4.30;99.90;;;;;;5052131;28;20464;-69
2022/11/26 06:12:21;;;;;;;1999.90;999.90;;;4.30;99.90;;;;;;5052636;28;20448;-69
2022/11/26 06:14:47;;;;;;;1999.90;999.90;;;4.50;99.90;;;;;;5052772;28;20455;-69
2022/11/26 06:17:14;;;;;;;1999.90;999.90;;;4.60;99.90;;;;;;5052221;28;20448;-70
2022/11/26 06:19:41;;;;;;;1999.90;999.90;;;4.50;99.90;;;;;;5051823;28;20858;-69
2022/11/26 06:22:08;;;;;;;1999.90;999.90;;;4.40;99.90;;;;;;5052422;28;20448;-69
2022/11/26 06:24:35;;;;;;;1999.90;999.90;;;4.40;99.90;;;;;;5051661;28;20480;-69
2022/11/26 06:27:03;;;;;;;1999.90;999.90;;;4.50;99.90;;;;;;5052436;28;20448;-69
2022/11/26 06:29:30;;;;;;;1999.90;999.90;;;4.40;99.90;;;;;;5052146;28;20503;-69
2022/11/26 06:31:57;;;;;;;1999.90;999.90;;;4.40;99.90;;;;;;5052686;28;20452;-69
2022/11/26 06:34:24;;;;;;;1999.90;999.90;;;4.40;99.90;;;;;;5052563;28;20440;-69
2022/11/26 06:36:51;;;;;;;1999.90;999.90;;;4.40;99.90;;;;;;5052534;28;20829;-70
2022/11/26 06:39:18;;;;;;;1999.90;999.90;;;4.40;99.90;;;;;;5052055;28;20460;-70
2022/11/26 06:41:44;;;;;;;1999.90;999.90;;;4.40;99.90;;;;;;5052855;28;20452;-69
2022/11/26 06:44:12;;;;;;;1999.90;999.90;;;4.50;99.90;;;;;;5052259;28;20476;-70
2022/11/26 06:46:39;;;;;;;1999.90;999.90;;;4.50;99.90;;;;;;5052622;28;20448;-69
2022/11/26 06:49:07;;;;;;;1999.90;999.90;;;4.60;99.90;;;;;;5051609;28;20448;-69
2022/11/26 06:51:34;;;;;;;1999.90;999.90;;;4.80;99.90;;;;;;5051824;28;20839;-70
2022/11/26 06:54:01;;;;;;;1999.90;999.90;;;4.70;99.90;;;;;;5051406;28;20436;-70
2022/11/26 06:56:27;;;;;;;1999.90;999.90;;;4.70;99.90;;;;;;5050742;28;20448;-70
2022/11/26 06:58:54;;;;;;;1999.90;999.90;;;4.60;99.90;;;;;;5050839;28;20447;-68
2022/11/26 07:01:25;;;;;;;1999.90;999.90;;;4.50;99.90;;;;;;5050888;28;20542;-69
2022/11/26 07:03:53;;;;;;;1999.90;999.90;;;4.50;99.90;;;;;;5050649;28;21001;-69
2022/11/26 07:06:22;;;;;;;1999.90;999.90;;;4.40;99.90;;;;;;5050405;28;20456;-69
2022/11/26 07:08:50;;;;;;;1999.90;999.90;;;4.20;99.90;;;;;;5050828;28;20514;-68
2022/11/26 07:11:18;;;;;;;1999.90;999.90;;;4.20;99.90;;;;;;5050930;28;20467;-69
2022/11/26 07:13:44;;;;;;;1999.90;999.90;;;4.20;99.90;;;;;;5051413;28;20440;-69
2022/11/26 07:16:12;;;;;;;1999.90;999.90;;;4.10;99.90;;;;;;5051093;28;20451;-69
2022/11/26 07:18:40;;;;;;;1999.90;999.90;;;4.10;99.90;;;;;;5050664;28;20447;-68
2022/11/26 07:21:09;;;;;;;1999.90;999.90;;;4.10;99.90;;;;;;5050723;28;20468;-69
2022/11/26 07:23:36;;;;;;;1999.90;999.90;;;4.10;99.90;;;;;;5050618;28;20444;-70
2022/11/26 07:26:04;;;;;;;1999.90;999.90;;;4.00;99.90;;;;;;5050991;28;20439;-70
2022/11/26 07:28:32;;;;;;;1999.90;999.90;;;4.00;99.90;;;;;;5050450;28;20513;-70
2022/11/26 07:31:00;;;;;;;1999.90;999.90;;;4.10;99.90;;;;;;5050028;28;21039;-70
2022/11/26 07:33:27;;;;;;;1999.90;999.90;;;4.30;99.90;;;;;;5046306;28;20448;-70
2022/11/26 07:35:58;;;;;;;1999.90;999.90;;;4.50;99.90;;;;;;5032214;28;20928;-70
2022/11/26 07:38:25;;;;;;;1999.90;999.90;;;4.80;99.90;;;;;;5029712;28;20946;-70
2022/11/26 07:40:52;;;;;;;1999.90;999.90;;;5.00;99.90;;;;;;5038859;28;20472;-69
2022/11/26 07:43:19;;;;;;;1999.90;999.90;;;5.10;99.90;;;;;;5044668;28;20440;-70
2022/11/26 07:45:48;;;;;;;1999.90;999.90;;;5.20;99.90;;;;;;5050148;28;20472;-70
2022/11/26 07:48:15;;;;;;;1999.90;999.90;;;5.30;99.90;;;;;;5042232;28;20945;-70
2022/11/26 07:50:44;;;;;;;1999.90;999.90;;;5.40;99.90;;;;;;5042514;28;20981;-70
2022/11/26 07:53:13;;;;;;;1999.90;999.90;;;5.60;99.90;;;;;;5046723;28;20817;-70
2022/11/26 07:55:40;;;;;;;1999.90;999.90;;;5.60;99.90;;;;;;5043579;28;20838;-70
2022/11/26 07:58:07;;;;;;;1999.90;999.90;;;5.80;99.90;;;;;;5041520;28;20829;-70
2022/11/26 08:00:34;;;;;;;1999.90;999.90;;;5.90;99.90;;;;;;5040435;28;20526;-70
2022/11/26 08:03:01;;;;;;;1999.90;999.90;;;6.00;99.90;;;;;;5040418;28;20448;-71
2022/11/26 08:05:28;;;;;;;1999.90;999.90;;;6.10;99.90;;;;;;5041199;28;20480;-70
2022/11/26 08:07:55;;;;;;;1999.90;999.90;;;6.20;99.90;;;;;;5040861;28;21141;-70
2022/11/26 08:10:23;;;;;;;1999.90;999.90;;;6.40;99.90;;;;;;5040570;28;20480;-71
2022/11/26 08:12:50;;;;;;;1999.90;999.90;;;6.30;99.90;;;;;;5040314;28;20467;-70
2022/11/26 08:15:17;;;;;;;1999.90;999.90;;;6.40;99.90;;;;;;5046655;28;20448;-69
2022/11/26 08:17:44;;;;;;;1999.90;999.90;;;6.40;99.90;;;;;;5045711;28;20559;-70
2022/11/26 08:20:11;;;;;;;1999.90;999.90;;;6.50;99.90;;;;;;5049191;28;20969;-70
2022/11/26 08:22:38;;;;;;;1999.90;999.90;;;6.40;99.90;;;;;;5046637;28;20527;-70
2022/11/26 08:25:06;;;;;;;1999.90;999.90;;;6.50;99.90;;;;;;5049410;28;20490;-70
2022/11/26 08:27:34;;;;;;;1999.90;999.90;;;6.50;99.90;;;;;;5038428;28;20449;-70
2022/11/26 08:30:01;;;;;;;1999.90;999.90;;;6.60;99.90;;;;;;5041827;28;20482;-70
2022/11/26 08:32:28;;;;;;;1999.90;999.90;;;6.80;99.90;;;;;;5049467;28;20448;-70
2022/11/26 08:34:54;;;;;;;1999.90;999.90;;;6.90;99.90;;;;;;5047911;28;20535;-70
2022/11/26 08:37:21;;;;;;;1999.90;999.90;;;7.00;99.90;;;;;;5043009;28;20570;-70
2022/11/26 08:39:48;;;;;;;1999.90;999.90;;;7.10;99.90;;;;;;5048227;28;20845;-72
2022/11/26 08:42:15;;;;;;;1999.90;999.90;;;7.10;99.90;;;;;;5047831;28;20451;-71
2022/11/26 08:44:43;;;;;;;1999.90;999.90;;;7.10;99.90;;;;;;5042550;28;20480;-70
2022/11/26 08:47:10;;;;;;;1999.90;999.90;;;7.10;99.90;;;;;;5048686;28;21190;-70
2022/11/26 08:49:36;;;;;;;1999.90;999.90;;;7.20;99.90;;;;;;5045848;28;20464;-70
2022/11/26 08:52:03;;;;;;;1999.90;999.90;;;7.10;99.90;;;;;;5045332;28;20445;-70
2022/11/26 08:54:30;;;;;;;1999.90;999.90;;;7.00;99.90;;;;;;5048862;28;20450;-71
2022/11/26 08:56:57;;;;;;;1999.90;999.90;;;6.90;99.90;;;;;;5044032;28;20448;-71
2022/11/26 08:59:24;;;;;;;1999.90;999.90;;;6.80;99.90;;;;;;5048354;28;20468;-71
2022/11/26 09:01:52;;;;;;;1999.90;999.90;;;6.80;99.90;;;;;;5045319;28;20844;-71
2022/11/26 09:04:19;;;;;;;1999.90;999.90;;;6.80;99.90;;;;;;5048934;28;20570;-71
2022/11/26 09:06:46;;;;;;;1999.90;999.90;;;6.90;99.90;;;;;;5049098;28;20912;-70
2022/11/26 09:09:12;;;;;;;1999.90;999.90;;;6.90;99.90;;;;;;5048552;28;20574;-72
2022/11/26 09:11:41;;;;;;;1999.90;999.90;;;7.00;99.90;;;;;;5049867;28;20559;-71
2022/11/26 09:14:09;;;;;;;1999.90;999.90;;;7.00;99.90;;;;;;5049676;28;20454;-71
2022/11/26 09:16:36;;;;;;;1999.90;999.90;;;7.10;99.90;;;;;;5049856;28;20975;-71
2022/11/26 09:19:06;;;;;;;1999.90;999.90;;;7.20;99.90;;;;;;5049202;28;20451;-71
2022/11/26 09:21:33;;;;;;;1999.90;999.90;;;7.40;99.90;;;;;;5049516;28;20439;-71
2022/11/26 09:24:00;;;;;;;1999.90;999.90;;;7.50;99.90;;;;;;5049793;28;20924;-72
2022/11/26 09:26:26;;;;;;;1999.90;999.90;;;7.60;99.90;;;;;;5049765;28;20448;-71
2022/11/26 09:28:53;;;;;;;1999.90;999.90;;;7.80;99.90;;;;;;5049255;28;20447;-72
2022/11/26 09:31:20;;;;;;;1999.90;999.90;;;8.10;99.90;;;;;;5049317;28;20471;-71
2022/11/26 09:33:47;;;;;;;1999.90;999.90;;;8.30;99.90;;;;;;5049294;28;20454;-70
2022/11/26 09:36:17;;;;;;;1999.90;999.90;;;8.50;99.90;;;;;;5048547;28;20452;-70
2022/11/26 09:38:44;;;;;;;1999.90;999.90;;;8.80;99.90;;;;;;5049052;28;20444;-70
2022/11/26 09:41:23;;;;;;;1999.90;999.90;;;8.90;99.90;;;;;;5048976;28;20474;-70
2022/11/26 09:44:04;;;;;;;1999.90;999.90;;;8.90;99.90;;;;;;5049307;28;20453;-70
2022/11/26 09:46:40;;;;;;;1999.90;999.90;;;8.70;99.90;;;;;;5048972;28;20450;-70
2022/11/26 09:49:12;;;;;;;1999.90;999.90;;;8.70;99.90;;;;;;5048705;28;20933;-70
2022/11/26 09:51:44;;;;;;;1999.90;999.90;;;8.70;99.90;;;;;;5049092;28;20455;-69
2022/11/26 09:54:17;;;;;;;1999.90;999.90;;;8.70;99.90;;;;;;5049114;28;20555;-70
2022/11/26 09:56:43;;;;;;;1999.90;999.90;;;8.70;99.90;;;;;;5048913;28;20447;-69
2022/11/26 09:59:14;;;;;;;1999.90;999.90;;;8.70;99.90;;;;;;5047627;28;20555;-69
2022/11/26 10:01:41;;;;;;;1999.90;999.90;;;8.80;99.90;;;;;;5052304;28;20463;-69
2022/11/26 10:04:12;;;;;;;1999.90;999.90;;;8.90;99.90;;;;;;5052466;28;21025;-69
2022/11/26 10:06:49;;;;;;;1999.90;999.90;;;9.10;99.90;;;;;;5052526;28;20448;-70
2022/11/26 10:09:43;;;;;;;1999.90;999.90;;;9.50;99.90;;;;;;5052073;28;20993;-69
2022/11/26 10:12:24;;;;;;;1999.90;999.90;;;9.90;99.90;;;;;;5052498;28;20494;-69
2022/11/26 10:14:59;;;;;;;1999.90;999.90;;;10.30;99.90;;;;;;5051976;28;20440;-69
2022/11/26 10:17:35;;;;;;;1999.90;999.90;;;10.80;99.90;;;;;;5051835;28;20454;-69
2022/11/26 10:20:18;;;;;;;1999.90;999.90;;;11.00;99.90;;;;;;5051217;28;20459;-68
2022/11/26 10:22:52;;;;;;;1999.90;999.90;;;11.30;99.90;;;;;;5052013;28;20962;-72
2022/11/26 10:25:20;;;;;;;1999.90;999.90;;;12.10;99.90;;;;;;5052031;28;21036;-72
2022/11/26 10:27:49;;;;;;;1999.90;999.90;;;12.80;99.90;;;;;;5051511;28;20992;-71
2022/11/26 10:30:19;;;;;;;1999.90;999.90;;;13.40;99.90;;;;;;5051521;28;20853;-72
2022/11/26 10:32:48;;;;;;;1999.90;999.90;;;13.90;99.90;;;;;;5052176;28;20448;-72
2022/11/26 10:35:17;;;;;;;1999.90;999.90;;;14.40;99.90;;;;;;5051784;28;20859;-70
2022/11/26 10:37:45;;;;;;;1999.90;999.90;;;14.50;99.90;;;;;;5051801;28;20444;-71
2022/11/26 10:40:20;;;;;;;1999.90;999.90;;;13.90;99.90;;;;;;5051241;28;20974;-70
2022/11/26 10:42:56;;;;;;;1999.90;999.90;;;13.60;99.90;;;;;;5051706;28;20493;-71
2022/11/26 10:45:27;;;;;;;1999.90;999.90;;;13.40;99.90;;;;;;5051564;28;20490;-71
2022/11/26 10:48:08;;;;;;;1999.90;999.90;;;13.20;99.90;;;;;;5051813;28;20831;-71
2022/11/26 10:50:34;;;;;;;1999.90;999.90;;;13.40;99.90;;;;;;5051328;28;20466;-72
2022/11/26 10:53:06;;;;;;;1999.90;999.90;;;13.50;99.90;;;;;;5051583;28;20451;-71
2022/11/26 10:55:37;;;;;;;1999.90;999.90;;;13.30;99.90;;;;;;5051352;28;20444;-71
2022/11/26 10:58:07;;;;;;;1999.90;999.90;;;13.20;99.90;;;;;;5051577;28;20454;-71
2022/11/26 11:00:37;;;;;;;1999.90;999.90;;;13.30;99.90;;;;;;5051250;28;20467;-71
2022/11/26 11:03:12;;;;;;;1999.90;999.90;;;13.30;99.90;;;;;;5051408;28;20527;-71
2022/11/26 11:05:40;;;;;;;1999.90;999.90;;;13.20;99.90;;;;;;5051155;28;20481;-71
2022/11/26 11:08:13;;;;;;;1999.90;999.90;;;12.70;99.90;;;;;;5051239;28;21065;-71
2022/11/26 11:10:53;;;;;;;1999.90;999.90;;;12.60;99.90;;;;;;5051095;28;20470;-71
2022/11/26 11:13:20;;;;;;;1999.90;999.90;;;12.50;99.90;;;;;;5051397;28;20855;-71
2022/11/26 11:15:47;;;;;;;1999.90;999.90;;;12.50;99.90;;;;;;5051033;28;20968;-71
2022/11/26 11:18:19;;;;;;;1999.90;999.90;;;12.20;99.90;;;;;;5050701;28;20451;-71
2022/11/26 11:20:53;;;;;;;1999.90;999.90;;;12.00;99.90;;;;;;5050399;28;20471;-71
2022/11/26 11:23:23;;;;;;;1999.90;999.90;;;11.60;99.90;;;;;;5046401;28;20447;-71
2022/11/26 11:25:59;;;;;;;1999.90;999.90;;;11.50;99.90;;;;;;5047496;28;20511;-70
2022/11/26 11:28:28;;;;;;;1999.90;999.90;;;11.50;99.90;;;;;;5038749;28;21000;-71
2022/11/26 11:31:03;;;;;;;1999.90;999.90;;;11.50;99.90;;;;;;5041936;28;20495;-71
2022/11/26 11:33:30;;;;;;;1999.90;999.90;;;11.60;99.90;;;;;;5040311;28;20451;-71
2022/11/26 11:36:02;;;;;;;1999.90;999.90;;;11.50;99.90;;;;;;5040504;28;20462;-72
2022/11/26 11:38:32;;;;;;;1999.90;999.90;;;11.50;99.90;;;;;;5040032;28;20452;-71
2022/11/26 11:41:03;;;;;;;1999.90;999.90;;;11.60;99.90;;;;;;5041063;28;20850;-71
2022/11/26 11:43:35;;;;;;;1999.90;999.90;;;11.70;99.90;;;;;;5042067;28;20542;-73
2022/11/26 11:46:18;;;;;;;1999.90;999.90;;;11.70;99.90;;;;;;5041490;28;20484;-70
2022/11/26 11:48:56;;;;;;;1999.90;999.90;;;11.80;99.90;;;;;;5039474;28;20546;-71
2022/11/26 11:51:31;;;;;;;1999.90;999.90;;;11.90;99.90;;;;;;5039544;28;21201;-71
2022/11/26 11:54:12;;;;;;;1999.90;999.90;;;11.90;99.90;;;;;;5043069;28;20455;-71
2022/11/26 11:56:41;;;;;;;1999.90;999.90;;;11.70;99.90;;;;;;5041168;28;20447;-71
2022/11/26 11:59:21;;;;;;;1999.90;999.90;;;11.60;99.90;;;;;;5039858;28;20499;-71
2022/11/26 12:02:00;;;;;;;1999.90;999.90;;;11.50;99.90;;;;;;5044851;28;20928;-70
2022/11/26 12:04:46;;;;;;;1999.90;999.90;;;11.50;99.90;;;;;;5041930;28;20469;-71
2022/11/26 12:07:31;;;;;;;1999.90;999.90;;;11.50;99.90;;;;;;5042351;28;20888;-72
2022/11/26 12:10:12;;;;;;;1999.90;999.90;;;11.60;99.90;;;;;;5058086;28;20467;-71
2022/11/26 12:12:44;;;;;;;1999.90;999.90;;;11.90;99.90;;;;;;5044138;28;20838;-71
2022/11/26 12:15:17;;;;;;;1999.90;999.90;;;12.10;99.90;;;;;;5048566;28;20478;-72
2022/11/26 12:17:46;;;;;;;1999.90;999.90;;;12.40;99.90;;;;;;5038324;28;20517;-73